Aviation Digital Data Service (ADDS)

Output produced by METARs form (1833 UTC 23 April 2019)
found at http://www.aviationweather.gov/metar/data/
 
TAF OAIX 231500Z 2315/2421 35009KT 9999 -SHRA VCTS SCT080CB BKN200 QNH3003INS 
     TEMPO 2315/2317 24025G35KT 6000 -TSRAGR BKN060CB 
     BECMG 2318/2319 34009KT 8000 -SHRA BKN040 QNH3002INS 
     BECMG 2401/2402 VRB06KT 8000 -SHRA SCT010 BKN030 QNH3004INS 
     TEMPO 2408/2415 25025G35KT 6000 -TSRA BKN030CB OVC050 
     BECMG 2417/2418 VRB06KT 8000 BR SCT050 QNH3002INS TX22/2411Z TN12/2402Z